Rib Lake, Wisconsin
Current Conditions -  °F | °C
As of 8:55 AM on Saturday 20 Dec 2014 (Local Time) from KMDZ Reporting Station
Haze Haze  
Wind Chill: 19°   Ceiling: 1200
Heat Index: 25°   Visibility: 5mi
Dew Point: 23°   Wind: 5mph
Humidity: 93%   Direction: 160°SSE
Pressure: 30.18"   Gusts: NA
Location:  45.32°N, 90.21°W
Report Text: KMDZ 201455Z AUTO 16004KT 5SM BR SCT007 OVC012 M04/M05 A3018 RMK AO2 T10411051
Loading
Personal Weather Stations






























Interactive Weather Map New forecast layout! Learn more

10-Day Weather Forecast

Advertisements
Track Severe Weather on mobile